sensor_id;sensor_type;location;lat;lon;timestamp;P1;durP1;ratioP1;P2;durP2;ratioP2
9898;SDS011;4988;49.238;6.698;2023-04-24T00:00:03;3.70;;;2.60;;
9898;SDS011;4988;49.238;6.698;2023-04-24T00:02:34;3.10;;;2.70;;
9898;SDS011;4988;49.238;6.698;2023-04-24T00:05:02;5.07;;;3.03;;
9898;SDS011;4988;49.238;6.698;2023-04-24T00:07:29;5.60;;;3.00;;
9898;SDS011;4988;49.238;6.698;2023-04-24T00:09:55;2.70;;;2.50;;
9898;SDS011;4988;49.238;6.698;2023-04-24T00:12:20;3.30;;;3.00;;
9898;SDS011;4988;49.238;6.698;2023-04-24T00:14:46;4.53;;;3.00;;
9898;SDS011;4988;49.238;6.698;2023-04-24T00:17:11;4.17;;;2.93;;
9898;SDS011;4988;49.238;6.698;2023-04-24T00:19:36;5.07;;;3.20;;
9898;SDS011;4988;49.238;6.698;2023-04-24T00:22:02;2.93;;;2.60;;
9898;SDS011;4988;49.238;6.698;2023-04-24T00:24:27;3.00;;;2.70;;
9898;SDS011;4988;49.238;6.698;2023-04-24T00:26:53;3.97;;;2.80;;
9898;SDS011;4988;49.238;6.698;2023-04-24T00:29:18;2.83;;;2.50;;
9898;SDS011;4988;49.238;6.698;2023-04-24T00:31:43;4.87;;;3.17;;
9898;SDS011;4988;49.238;6.698;2023-04-24T00:34:09;7.20;;;3.00;;
9898;SDS011;4988;49.238;6.698;2023-04-24T00:36:35;5.47;;;3.33;;
9898;SDS011;4988;49.238;6.698;2023-04-24T00:39:00;6.10;;;2.87;;
9898;SDS011;4988;49.238;6.698;2023-04-24T00:41:26;3.20;;;2.90;;
9898;SDS011;4988;49.238;6.698;2023-04-24T00:43:51;5.20;;;3.17;;
9898;SDS011;4988;49.238;6.698;2023-04-24T00:46:17;3.83;;;3.43;;
9898;SDS011;4988;49.238;6.698;2023-04-24T00:48:44;3.43;;;3.13;;
9898;SDS011;4988;49.238;6.698;2023-04-24T00:51:09;5.17;;;3.10;;
9898;SDS011;4988;49.238;6.698;2023-04-24T00:53:35;4.40;;;3.50;;
9898;SDS011;4988;49.238;6.698;2023-04-24T00:56:00;4.00;;;3.23;;
9898;SDS011;4988;49.238;6.698;2023-04-24T00:58:26;5.73;;;3.90;;
9898;SDS011;4988;49.238;6.698;2023-04-24T01:00:52;4.63;;;3.90;;
9898;SDS011;4988;49.238;6.698;2023-04-24T01:03:22;4.23;;;3.33;;
9898;SDS011;4988;49.238;6.698;2023-04-24T01:05:51;5.23;;;3.97;;
9898;SDS011;4988;49.238;6.698;2023-04-24T01:08:17;8.97;;;4.20;;
9898;SDS011;4988;49.238;6.698;2023-04-24T01:10:43;5.57;;;4.20;;
9898;SDS011;4988;49.238;6.698;2023-04-24T01:13:09;5.47;;;3.73;;
9898;SDS011;4988;49.238;6.698;2023-04-24T01:15:35;5.43;;;3.93;;
9898;SDS011;4988;49.238;6.698;2023-04-24T01:18:00;6.10;;;4.30;;
9898;SDS011;4988;49.238;6.698;2023-04-24T01:20:26;4.60;;;4.20;;
9898;SDS011;4988;49.238;6.698;2023-04-24T01:22:51;5.97;;;3.80;;
9898;SDS011;4988;49.238;6.698;2023-04-24T01:25:19;6.60;;;4.20;;
9898;SDS011;4988;49.238;6.698;2023-04-24T01:27:45;7.70;;;4.40;;
9898;SDS011;4988;49.238;6.698;2023-04-24T01:30:10;7.33;;;5.03;;
9898;SDS011;4988;49.238;6.698;2023-04-24T01:32:36;6.63;;;3.90;;
9898;SDS011;4988;49.238;6.698;2023-04-24T01:35:02;5.27;;;3.87;;
9898;SDS011;4988;49.238;6.698;2023-04-24T01:37:28;6.63;;;4.40;;
9898;SDS011;4988;49.238;6.698;2023-04-24T01:39:54;5.87;;;3.97;;
9898;SDS011;4988;49.238;6.698;2023-04-24T01:42:19;6.63;;;4.77;;
9898;SDS011;4988;49.238;6.698;2023-04-24T01:44:44;5.70;;;4.60;;
9898;SDS011;4988;49.238;6.698;2023-04-24T01:47:10;6.57;;;4.57;;
9898;SDS011;4988;49.238;6.698;2023-04-24T01:49:37;6.27;;;4.83;;
9898;SDS011;4988;49.238;6.698;2023-04-24T01:52:03;5.60;;;4.73;;
9898;SDS011;4988;49.238;6.698;2023-04-24T01:54:29;6.57;;;4.30;;
9898;SDS011;4988;49.238;6.698;2023-04-24T01:56:55;6.00;;;4.27;;
9898;SDS011;4988;49.238;6.698;2023-04-24T01:59:20;7.80;;;4.60;;
9898;SDS011;4988;49.238;6.698;2023-04-24T02:01:46;7.20;;;4.63;;
9898;SDS011;4988;49.238;6.698;2023-04-24T02:04:12;7.07;;;4.77;;
9898;SDS011;4988;49.238;6.698;2023-04-24T02:06:37;5.83;;;4.80;;
9898;SDS011;4988;49.238;6.698;2023-04-24T02:09:02;8.33;;;5.50;;
9898;SDS011;4988;49.238;6.698;2023-04-24T02:11:28;6.60;;;4.70;;
9898;SDS011;4988;49.238;6.698;2023-04-24T02:13:53;6.07;;;5.00;;
9898;SDS011;4988;49.238;6.698;2023-04-24T02:16:19;7.10;;;5.10;;
9898;SDS011;4988;49.238;6.698;2023-04-24T02:18:44;7.73;;;5.23;;
9898;SDS011;4988;49.238;6.698;2023-04-24T02:21:10;8.43;;;5.50;;
9898;SDS011;4988;49.238;6.698;2023-04-24T02:23:36;6.40;;;5.30;;
9898;SDS011;4988;49.238;6.698;2023-04-24T02:26:01;7.07;;;5.60;;
9898;SDS011;4988;49.238;6.698;2023-04-24T02:28:27;10.07;;;6.03;;
9898;SDS011;4988;49.238;6.698;2023-04-24T02:30:52;8.10;;;6.23;;
9898;SDS011;4988;49.238;6.698;2023-04-24T02:33:17;9.37;;;6.07;;
9898;SDS011;4988;49.238;6.698;2023-04-24T02:35:43;8.77;;;6.57;;
9898;SDS011;4988;49.238;6.698;2023-04-24T02:38:08;9.73;;;6.67;;
9898;SDS011;4988;49.238;6.698;2023-04-24T02:40:33;9.17;;;6.00;;
9898;SDS011;4988;49.238;6.698;2023-04-24T02:42:59;9.77;;;6.80;;
9898;SDS011;4988;49.238;6.698;2023-04-24T02:45:24;11.73;;;6.13;;
9898;SDS011;4988;49.238;6.698;2023-04-24T02:47:49;11.80;;;6.80;;
9898;SDS011;4988;49.238;6.698;2023-04-24T02:50:15;11.63;;;6.53;;
9898;SDS011;4988;49.238;6.698;2023-04-24T02:52:40;13.57;;;7.17;;
9898;SDS011;4988;49.238;6.698;2023-04-24T02:55:05;10.13;;;6.33;;
9898;SDS011;4988;49.238;6.698;2023-04-24T02:57:32;9.03;;;6.57;;
9898;SDS011;4988;49.238;6.698;2023-04-24T02:59:58;10.20;;;6.87;;
9898;SDS011;4988;49.238;6.698;2023-04-24T03:02:23;12.97;;;6.73;;
9898;SDS011;4988;49.238;6.698;2023-04-24T03:04:49;10.77;;;7.00;;
9898;SDS011;4988;49.238;6.698;2023-04-24T03:07:14;13.17;;;7.07;;
9898;SDS011;4988;49.238;6.698;2023-04-24T03:09:40;10.80;;;6.47;;
9898;SDS011;4988;49.238;6.698;2023-04-24T03:12:06;8.73;;;5.80;;
9898;SDS011;4988;49.238;6.698;2023-04-24T03:14:31;11.77;;;7.17;;
9898;SDS011;4988;49.238;6.698;2023-04-24T03:16:56;9.80;;;6.17;;
9898;SDS011;4988;49.238;6.698;2023-04-24T03:19:22;10.90;;;6.40;;
9898;SDS011;4988;49.238;6.698;2023-04-24T03:21:47;10.00;;;6.27;;
9898;SDS011;4988;49.238;6.698;2023-04-24T03:24:13;9.40;;;6.80;;
9898;SDS011;4988;49.238;6.698;2023-04-24T03:26:38;9.03;;;6.17;;
9898;SDS011;4988;49.238;6.698;2023-04-24T03:29:04;7.63;;;5.43;;
9898;SDS011;4988;49.238;6.698;2023-04-24T03:31:29;7.67;;;6.23;;
9898;SDS011;4988;49.238;6.698;2023-04-24T03:33:54;9.87;;;5.90;;
9898;SDS011;4988;49.238;6.698;2023-04-24T03:36:20;12.47;;;6.23;;
9898;SDS011;4988;49.238;6.698;2023-04-24T03:38:45;9.73;;;6.00;;
9898;SDS011;4988;49.238;6.698;2023-04-24T03:41:10;8.63;;;6.07;;
9898;SDS011;4988;49.238;6.698;2023-04-24T03:43:36;9.43;;;6.30;;
9898;SDS011;4988;49.238;6.698;2023-04-24T03:46:02;11.40;;;6.07;;
9898;SDS011;4988;49.238;6.698;2023-04-24T03:48:28;11.50;;;6.50;;
9898;SDS011;4988;49.238;6.698;2023-04-24T03:50:53;9.27;;;5.77;;
9898;SDS011;4988;49.238;6.698;2023-04-24T03:53:18;9.13;;;5.93;;
9898;SDS011;4988;49.238;6.698;2023-04-24T03:55:44;8.07;;;5.37;;
9898;SDS011;4988;49.238;6.698;2023-04-24T03:58:10;8.20;;;5.70;;
9898;SDS011;4988;49.238;6.698;2023-04-24T04:00:36;9.10;;;5.50;;
9898;SDS011;4988;49.238;6.698;2023-04-24T04:03:02;8.17;;;6.03;;
9898;SDS011;4988;49.238;6.698;2023-04-24T04:05:28;7.20;;;5.57;;
9898;SDS011;4988;49.238;6.698;2023-04-24T04:07:53;9.13;;;6.17;;
9898;SDS011;4988;49.238;6.698;2023-04-24T04:10:19;9.27;;;5.80;;
9898;SDS011;4988;49.238;6.698;2023-04-24T04:12:44;8.03;;;5.57;;
9898;SDS011;4988;49.238;6.698;2023-04-24T04:15:09;10.23;;;6.27;;
9898;SDS011;4988;49.238;6.698;2023-04-24T04:17:35;7.73;;;5.50;;
9898;SDS011;4988;49.238;6.698;2023-04-24T04:20:00;8.47;;;5.40;;
9898;SDS011;4988;49.238;6.698;2023-04-24T04:22:26;6.83;;;5.33;;
9898;SDS011;4988;49.238;6.698;2023-04-24T04:24:52;9.93;;;6.00;;
9898;SDS011;4988;49.238;6.698;2023-04-24T04:27:17;8.70;;;5.90;;
9898;SDS011;4988;49.238;6.698;2023-04-24T04:29:43;9.77;;;6.43;;
9898;SDS011;4988;49.238;6.698;2023-04-24T04:32:09;10.93;;;6.20;;
9898;SDS011;4988;49.238;6.698;2023-04-24T04:34:34;9.47;;;6.10;;
9898;SDS011;4988;49.238;6.698;2023-04-24T04:37:02;14.13;;;6.50;;
9898;SDS011;4988;49.238;6.698;2023-04-24T04:39:28;9.30;;;6.60;;
9898;SDS011;4988;49.238;6.698;2023-04-24T04:41:54;10.10;;;6.90;;
9898;SDS011;4988;49.238;6.698;2023-04-24T04:44:20;11.63;;;6.67;;
9898;SDS011;4988;49.238;6.698;2023-04-24T04:46:45;10.83;;;7.00;;
9898;SDS011;4988;49.238;6.698;2023-04-24T04:49:11;10.67;;;6.13;;
9898;SDS011;4988;49.238;6.698;2023-04-24T04:51:36;11.70;;;7.00;;
9898;SDS011;4988;49.238;6.698;2023-04-24T04:54:01;13.90;;;7.00;;
9898;SDS011;4988;49.238;6.698;2023-04-24T04:56:27;14.33;;;7.57;;
9898;SDS011;4988;49.238;6.698;2023-04-24T04:58:52;10.27;;;6.53;;
9898;SDS011;4988;49.238;6.698;2023-04-24T05:01:18;13.03;;;7.33;;
9898;SDS011;4988;49.238;6.698;2023-04-24T05:03:43;10.77;;;6.77;;
9898;SDS011;4988;49.238;6.698;2023-04-24T05:06:09;10.40;;;6.37;;
9898;SDS011;4988;49.238;6.698;2023-04-24T05:08:34;12.67;;;6.80;;
9898;SDS011;4988;49.238;6.698;2023-04-24T05:11:00;11.40;;;6.67;;
9898;SDS011;4988;49.238;6.698;2023-04-24T05:13:25;13.57;;;6.90;;
9898;SDS011;4988;49.238;6.698;2023-04-24T05:15:51;12.03;;;6.70;;
9898;SDS011;4988;49.238;6.698;2023-04-24T05:18:16;14.30;;;6.80;;
9898;SDS011;4988;49.238;6.698;2023-04-24T05:20:42;11.67;;;7.00;;
9898;SDS011;4988;49.238;6.698;2023-04-24T05:23:08;10.40;;;7.00;;
9898;SDS011;4988;49.238;6.698;2023-04-24T05:25:34;10.77;;;7.27;;
9898;SDS011;4988;49.238;6.698;2023-04-24T05:28:00;11.87;;;7.00;;
9898;SDS011;4988;49.238;6.698;2023-04-24T05:30:27;10.77;;;6.90;;
9898;SDS011;4988;49.238;6.698;2023-04-24T05:32:52;9.40;;;6.93;;
9898;SDS011;4988;49.238;6.698;2023-04-24T05:35:17;10.20;;;6.77;;
9898;SDS011;4988;49.238;6.698;2023-04-24T05:37:43;9.93;;;7.00;;
9898;SDS011;4988;49.238;6.698;2023-04-24T05:40:09;13.03;;;7.10;;
9898;SDS011;4988;49.238;6.698;2023-04-24T05:42:35;13.13;;;6.70;;
9898;SDS011;4988;49.238;6.698;2023-04-24T05:45:00;10.47;;;6.57;;
9898;SDS011;4988;49.238;6.698;2023-04-24T05:47:26;8.67;;;6.13;;
9898;SDS011;4988;49.238;6.698;2023-04-24T05:49:51;10.03;;;6.77;;
9898;SDS011;4988;49.238;6.698;2023-04-24T05:52:17;10.10;;;7.00;;
9898;SDS011;4988;49.238;6.698;2023-04-24T05:54:42;11.13;;;6.73;;
9898;SDS011;4988;49.238;6.698;2023-04-24T05:57:08;11.23;;;7.20;;
9898;SDS011;4988;49.238;6.698;2023-04-24T05:59:33;13.70;;;6.27;;
9898;SDS011;4988;49.238;6.698;2023-04-24T06:02:01;9.53;;;5.60;;
9898;SDS011;4988;49.238;6.698;2023-04-24T06:04:26;13.43;;;6.53;;
9898;SDS011;4988;49.238;6.698;2023-04-24T06:06:52;9.50;;;6.10;;
9898;SDS011;4988;49.238;6.698;2023-04-24T06:09:21;8.87;;;6.13;;
9898;SDS011;4988;49.238;6.698;2023-04-24T06:11:47;9.40;;;5.67;;
9898;SDS011;4988;49.238;6.698;2023-04-24T06:14:12;8.60;;;5.97;;
9898;SDS011;4988;49.238;6.698;2023-04-24T06:16:37;9.80;;;5.60;;
9898;SDS011;4988;49.238;6.698;2023-04-24T06:19:03;8.23;;;5.87;;
9898;SDS011;4988;49.238;6.698;2023-04-24T06:21:29;8.63;;;5.50;;
9898;SDS011;4988;49.238;6.698;2023-04-24T06:23:54;7.23;;;5.10;;
9898;SDS011;4988;49.238;6.698;2023-04-24T06:26:21;9.17;;;5.50;;
9898;SDS011;4988;49.238;6.698;2023-04-24T06:28:47;9.47;;;5.23;;
9898;SDS011;4988;49.238;6.698;2023-04-24T06:31:12;7.70;;;5.50;;
9898;SDS011;4988;49.238;6.698;2023-04-24T06:33:37;9.53;;;5.77;;
9898;SDS011;4988;49.238;6.698;2023-04-24T06:36:03;7.37;;;5.37;;
9898;SDS011;4988;49.238;6.698;2023-04-24T06:38:29;8.03;;;5.10;;
9898;SDS011;4988;49.238;6.698;2023-04-24T06:40:54;15.33;;;7.13;;
9898;SDS011;4988;49.238;6.698;2023-04-24T06:43:19;7.47;;;4.80;;
9898;SDS011;4988;49.238;6.698;2023-04-24T06:45:45;11.40;;;5.23;;
9898;SDS011;4988;49.238;6.698;2023-04-24T06:48:12;8.00;;;5.20;;
9898;SDS011;4988;49.238;6.698;2023-04-24T06:50:37;7.73;;;5.20;;
9898;SDS011;4988;49.238;6.698;2023-04-24T06:53:02;8.60;;;4.80;;
9898;SDS011;4988;49.238;6.698;2023-04-24T06:55:28;5.97;;;4.73;;
9898;SDS011;4988;49.238;6.698;2023-04-24T06:57:53;7.27;;;5.00;;
9898;SDS011;4988;49.238;6.698;2023-04-24T07:00:18;7.87;;;4.70;;
9898;SDS011;4988;49.238;6.698;2023-04-24T07:02:44;8.10;;;5.17;;
9898;SDS011;4988;49.238;6.698;2023-04-24T07:05:10;6.87;;;4.50;;
9898;SDS011;4988;49.238;6.698;2023-04-24T07:07:36;9.93;;;5.10;;
9898;SDS011;4988;49.238;6.698;2023-04-24T07:10:03;8.60;;;5.60;;
9898;SDS011;4988;49.238;6.698;2023-04-24T07:12:29;7.70;;;5.67;;
9898;SDS011;4988;49.238;6.698;2023-04-24T07:14:54;14.07;;;6.70;;
9898;SDS011;4988;49.238;6.698;2023-04-24T07:17:20;12.20;;;6.93;;
9898;SDS011;4988;49.238;6.698;2023-04-24T07:19:45;9.07;;;5.73;;
9898;SDS011;4988;49.238;6.698;2023-04-24T07:22:11;14.17;;;6.30;;
9898;SDS011;4988;49.238;6.698;2023-04-24T07:24:41;14.33;;;6.03;;
9898;SDS011;4988;49.238;6.698;2023-04-24T07:27:08;9.10;;;5.80;;
9898;SDS011;4988;49.238;6.698;2023-04-24T07:29:33;11.20;;;6.67;;
9898;SDS011;4988;49.238;6.698;2023-04-24T07:31:58;9.87;;;6.10;;
9898;SDS011;4988;49.238;6.698;2023-04-24T07:34:24;10.67;;;6.30;;
9898;SDS011;4988;49.238;6.698;2023-04-24T07:36:49;9.50;;;5.50;;
9898;SDS011;4988;49.238;6.698;2023-04-24T07:39:15;11.50;;;6.53;;
9898;SDS011;4988;49.238;6.698;2023-04-24T07:41:40;9.63;;;6.27;;
9898;SDS011;4988;49.238;6.698;2023-04-24T07:44:06;11.80;;;6.97;;
9898;SDS011;4988;49.238;6.698;2023-04-24T07:46:31;12.37;;;6.90;;
9898;SDS011;4988;49.238;6.698;2023-04-24T07:48:57;12.67;;;7.03;;
9898;SDS011;4988;49.238;6.698;2023-04-24T07:51:24;14.23;;;6.70;;
9898;SDS011;4988;49.238;6.698;2023-04-24T07:53:52;13.53;;;7.63;;
9898;SDS011;4988;49.238;6.698;2023-04-24T07:56:17;12.97;;;6.87;;
9898;SDS011;4988;49.238;6.698;2023-04-24T07:58:42;16.30;;;7.73;;
9898;SDS011;4988;49.238;6.698;2023-04-24T08:01:07;13.40;;;8.57;;
9898;SDS011;4988;49.238;6.698;2023-04-24T08:03:33;14.57;;;8.53;;
9898;SDS011;4988;49.238;6.698;2023-04-24T08:05:58;15.80;;;8.70;;
9898;SDS011;4988;49.238;6.698;2023-04-24T08:08:24;15.90;;;8.67;;
9898;SDS011;4988;49.238;6.698;2023-04-24T08:10:50;16.97;;;8.47;;
9898;SDS011;4988;49.238;6.698;2023-04-24T08:13:15;14.00;;;8.60;;
9898;SDS011;4988;49.238;6.698;2023-04-24T08:15:41;16.57;;;8.73;;
9898;SDS011;4988;49.238;6.698;2023-04-24T08:18:06;14.17;;;9.00;;
9898;SDS011;4988;49.238;6.698;2023-04-24T08:20:32;17.20;;;9.67;;
9898;SDS011;4988;49.238;6.698;2023-04-24T08:22:57;16.73;;;9.40;;
9898;SDS011;4988;49.238;6.698;2023-04-24T08:25:22;19.87;;;9.53;;
9898;SDS011;4988;49.238;6.698;2023-04-24T08:27:49;16.27;;;9.53;;
9898;SDS011;4988;49.238;6.698;2023-04-24T08:30:15;16.53;;;9.03;;
9898;SDS011;4988;49.238;6.698;2023-04-24T08:32:40;15.10;;;8.83;;
9898;SDS011;4988;49.238;6.698;2023-04-24T08:35:06;16.30;;;9.20;;
9898;SDS011;4988;49.238;6.698;2023-04-24T08:37:34;17.73;;;9.90;;
9898;SDS011;4988;49.238;6.698;2023-04-24T08:39:59;17.30;;;9.97;;
9898;SDS011;4988;49.238;6.698;2023-04-24T08:42:24;15.73;;;9.53;;
9898;SDS011;4988;49.238;6.698;2023-04-24T08:44:53;17.93;;;9.33;;
9898;SDS011;4988;49.238;6.698;2023-04-24T08:47:19;14.63;;;8.53;;
9898;SDS011;4988;49.238;6.698;2023-04-24T08:49:46;14.73;;;8.30;;
9898;SDS011;4988;49.238;6.698;2023-04-24T08:52:13;16.10;;;8.37;;
9898;SDS011;4988;49.238;6.698;2023-04-24T08:54:38;16.00;;;8.47;;
9898;SDS011;4988;49.238;6.698;2023-04-24T08:57:05;15.77;;;8.53;;
9898;SDS011;4988;49.238;6.698;2023-04-24T08:59:32;13.93;;;8.57;;
9898;SDS011;4988;49.238;6.698;2023-04-24T09:01:59;15.77;;;9.07;;
9898;SDS011;4988;49.238;6.698;2023-04-24T09:04:25;19.90;;;9.17;;
9898;SDS011;4988;49.238;6.698;2023-04-24T09:06:51;18.17;;;8.70;;
9898;SDS011;4988;49.238;6.698;2023-04-24T09:09:20;16.17;;;8.97;;
9898;SDS011;4988;49.238;6.698;2023-04-24T09:11:46;17.93;;;9.13;;
9898;SDS011;4988;49.238;6.698;2023-04-24T09:14:12;15.43;;;8.77;;
9898;SDS011;4988;49.238;6.698;2023-04-24T09:16:38;15.47;;;8.33;;
9898;SDS011;4988;49.238;6.698;2023-04-24T09:19:03;14.47;;;8.90;;
9898;SDS011;4988;49.238;6.698;2023-04-24T09:21:32;14.53;;;9.07;;
9898;SDS011;4988;49.238;6.698;2023-04-24T09:23:59;16.90;;;8.90;;
9898;SDS011;4988;49.238;6.698;2023-04-24T09:26:31;19.03;;;8.77;;
9898;SDS011;4988;49.238;6.698;2023-04-24T09:28:57;18.80;;;8.97;;
9898;SDS011;4988;49.238;6.698;2023-04-24T09:31:23;19.43;;;8.90;;
9898;SDS011;4988;49.238;6.698;2023-04-24T09:36:35;15.27;;;8.30;;
9898;SDS011;4988;49.238;6.698;2023-04-24T09:39:06;15.33;;;9.13;;
9898;SDS011;4988;49.238;6.698;2023-04-24T09:44:12;14.47;;;8.83;;
9898;SDS011;4988;49.238;6.698;2023-04-24T09:46:41;16.37;;;9.30;;
9898;SDS011;4988;49.238;6.698;2023-04-24T09:49:14;16.60;;;8.80;;
9898;SDS011;4988;49.238;6.698;2023-04-24T09:51:41;16.30;;;8.63;;
9898;SDS011;4988;49.238;6.698;2023-04-24T09:54:13;19.00;;;9.77;;
9898;SDS011;4988;49.238;6.698;2023-04-24T09:56:48;18.90;;;8.73;;
9898;SDS011;4988;49.238;6.698;2023-04-24T09:59:15;17.10;;;8.10;;
9898;SDS011;4988;49.238;6.698;2023-04-24T10:01:42;18.63;;;8.57;;
9898;SDS011;4988;49.238;6.698;2023-04-24T10:04:25;14.57;;;7.60;;
9898;SDS011;4988;49.238;6.698;2023-04-24T10:06:52;17.60;;;9.53;;
9898;SDS011;4988;49.238;6.698;2023-04-24T10:09:20;16.70;;;8.67;;
9898;SDS011;4988;49.238;6.698;2023-04-24T10:11:48;13.83;;;7.63;;
9898;SDS011;4988;49.238;6.698;2023-04-24T10:14:16;11.93;;;7.70;;
9898;SDS011;4988;49.238;6.698;2023-04-24T10:16:43;15.40;;;7.90;;
9898;SDS011;4988;49.238;6.698;2023-04-24T10:19:12;11.90;;;7.50;;
9898;SDS011;4988;49.238;6.698;2023-04-24T10:21:38;13.47;;;8.27;;
9898;SDS011;4988;49.238;6.698;2023-04-24T10:24:07;16.00;;;8.60;;
9898;SDS011;4988;49.238;6.698;2023-04-24T10:26:34;17.83;;;8.40;;
9898;SDS011;4988;49.238;6.698;2023-04-24T10:29:00;11.40;;;7.37;;
9898;SDS011;4988;49.238;6.698;2023-04-24T10:31:25;13.73;;;7.63;;
9898;SDS011;4988;49.238;6.698;2023-04-24T10:33:52;14.10;;;7.43;;
9898;SDS011;4988;49.238;6.698;2023-04-24T10:36:18;13.97;;;7.50;;
9898;SDS011;4988;49.238;6.698;2023-04-24T10:38:47;16.50;;;7.50;;
9898;SDS011;4988;49.238;6.698;2023-04-24T10:41:15;13.13;;;8.03;;
9898;SDS011;4988;49.238;6.698;2023-04-24T10:43:47;14.87;;;7.90;;
9898;SDS011;4988;49.238;6.698;2023-04-24T10:46:19;13.77;;;7.93;;
9898;SDS011;4988;49.238;6.698;2023-04-24T10:48:54;12.97;;;6.90;;
9898;SDS011;4988;49.238;6.698;2023-04-24T10:51:21;13.73;;;7.27;;
9898;SDS011;4988;49.238;6.698;2023-04-24T10:53:47;15.43;;;8.20;;
9898;SDS011;4988;49.238;6.698;2023-04-24T10:56:15;12.43;;;7.43;;
9898;SDS011;4988;49.238;6.698;2023-04-24T10:58:41;12.67;;;8.00;;
9898;SDS011;4988;49.238;6.698;2023-04-24T11:01:22;13.40;;;7.90;;
9898;SDS011;4988;49.238;6.698;2023-04-24T11:03:56;14.20;;;7.43;;
9898;SDS011;4988;49.238;6.698;2023-04-24T11:06:30;12.43;;;7.10;;
9898;SDS011;4988;49.238;6.698;2023-04-24T11:09:10;11.57;;;7.67;;
9898;SDS011;4988;49.238;6.698;2023-04-24T11:11:37;13.77;;;7.50;;
9898;SDS011;4988;49.238;6.698;2023-04-24T11:14:09;13.47;;;7.63;;
9898;SDS011;4988;49.238;6.698;2023-04-24T11:16:42;14.53;;;7.40;;
9898;SDS011;4988;49.238;6.698;2023-04-24T11:22:03;12.67;;;6.87;;
9898;SDS011;4988;49.238;6.698;2023-04-24T11:24:39;15.43;;;7.67;;
9898;SDS011;4988;49.238;6.698;2023-04-24T11:27:06;13.57;;;6.93;;
9898;SDS011;4988;49.238;6.698;2023-04-24T11:29:40;15.53;;;7.33;;
9898;SDS011;4988;49.238;6.698;2023-04-24T11:32:16;13.40;;;7.00;;
9898;SDS011;4988;49.238;6.698;2023-04-24T11:34:45;17.23;;;7.60;;
9898;SDS011;4988;49.238;6.698;2023-04-24T11:37:12;17.40;;;6.87;;
9898;SDS011;4988;49.238;6.698;2023-04-24T11:39:38;12.70;;;6.83;;
9898;SDS011;4988;49.238;6.698;2023-04-24T11:42:03;11.27;;;6.63;;
9898;SDS011;4988;49.238;6.698;2023-04-24T11:44:31;9.03;;;6.73;;
9898;SDS011;4988;49.238;6.698;2023-04-24T11:46:58;12.97;;;6.73;;
9898;SDS011;4988;49.238;6.698;2023-04-24T11:49:23;10.37;;;6.60;;
9898;SDS011;4988;49.238;6.698;2023-04-24T11:51:49;10.30;;;6.00;;
9898;SDS011;4988;49.238;6.698;2023-04-24T11:54:14;10.87;;;6.20;;
9898;SDS011;4988;49.238;6.698;2023-04-24T11:56:44;10.53;;;6.30;;
9898;SDS011;4988;49.238;6.698;2023-04-24T11:59:11;12.67;;;6.40;;
9898;SDS011;4988;49.238;6.698;2023-04-24T12:01:46;15.13;;;6.70;;
9898;SDS011;4988;49.238;6.698;2023-04-24T12:04:12;14.80;;;6.83;;
9898;SDS011;4988;49.238;6.698;2023-04-24T12:06:38;13.60;;;7.07;;
9898;SDS011;4988;49.238;6.698;2023-04-24T12:09:03;12.07;;;6.70;;
9898;SDS011;4988;49.238;6.698;2023-04-24T12:11:29;9.10;;;5.87;;
9898;SDS011;4988;49.238;6.698;2023-04-24T12:13:55;12.73;;;6.70;;
9898;SDS011;4988;49.238;6.698;2023-04-24T12:16:20;10.97;;;6.70;;
9898;SDS011;4988;49.238;6.698;2023-04-24T12:18:45;10.00;;;6.57;;
9898;SDS011;4988;49.238;6.698;2023-04-24T12:21:21;12.57;;;6.27;;
9898;SDS011;4988;49.238;6.698;2023-04-24T12:23:47;9.93;;;6.93;;
9898;SDS011;4988;49.238;6.698;2023-04-24T12:26:16;8.77;;;6.57;;
9898;SDS011;4988;49.238;6.698;2023-04-24T12:28:45;10.53;;;6.20;;
9898;SDS011;4988;49.238;6.698;2023-04-24T12:31:11;8.37;;;5.57;;
9898;SDS011;4988;49.238;6.698;2023-04-24T12:33:37;9.50;;;5.63;;
9898;SDS011;4988;49.238;6.698;2023-04-24T12:36:03;10.70;;;5.83;;
9898;SDS011;4988;49.238;6.698;2023-04-24T12:38:30;9.50;;;5.60;;
9898;SDS011;4988;49.238;6.698;2023-04-24T12:41:05;10.33;;;6.10;;
9898;SDS011;4988;49.238;6.698;2023-04-24T12:43:32;9.27;;;5.37;;
9898;SDS011;4988;49.238;6.698;2023-04-24T12:45:58;10.73;;;6.50;;
9898;SDS011;4988;49.238;6.698;2023-04-24T12:48:24;11.47;;;6.93;;
9898;SDS011;4988;49.238;6.698;2023-04-24T12:50:50;13.43;;;7.90;;
9898;SDS011;4988;49.238;6.698;2023-04-24T12:53:16;11.60;;;8.07;;
9898;SDS011;4988;49.238;6.698;2023-04-24T12:55:41;12.23;;;7.03;;
9898;SDS011;4988;49.238;6.698;2023-04-24T12:58:06;13.00;;;6.67;;
9898;SDS011;4988;49.238;6.698;2023-04-24T13:00:32;11.73;;;6.80;;
9898;SDS011;4988;49.238;6.698;2023-04-24T13:02:58;12.97;;;7.90;;
9898;SDS011;4988;49.238;6.698;2023-04-24T13:05:23;10.40;;;7.00;;
9898;SDS011;4988;49.238;6.698;2023-04-24T13:07:48;13.23;;;7.40;;
9898;SDS011;4988;49.238;6.698;2023-04-24T13:10:14;13.43;;;6.97;;
9898;SDS011;4988;49.238;6.698;2023-04-24T13:12:39;10.60;;;7.53;;
9898;SDS011;4988;49.238;6.698;2023-04-24T13:15:05;11.87;;;7.73;;
9898;SDS011;4988;49.238;6.698;2023-04-24T13:17:31;16.40;;;8.40;;
9898;SDS011;4988;49.238;6.698;2023-04-24T13:19:56;11.23;;;7.20;;
9898;SDS011;4988;49.238;6.698;2023-04-24T13:22:22;10.40;;;7.50;;
9898;SDS011;4988;49.238;6.698;2023-04-24T13:24:47;14.60;;;7.70;;
9898;SDS011;4988;49.238;6.698;2023-04-24T13:27:16;14.23;;;7.50;;
9898;SDS011;4988;49.238;6.698;2023-04-24T13:29:41;11.90;;;7.93;;
9898;SDS011;4988;49.238;6.698;2023-04-24T13:32:07;13.20;;;7.70;;
9898;SDS011;4988;49.238;6.698;2023-04-24T13:34:33;10.80;;;7.17;;
9898;SDS011;4988;49.238;6.698;2023-04-24T13:37:00;12.77;;;8.23;;
9898;SDS011;4988;49.238;6.698;2023-04-24T13:39:25;12.03;;;7.30;;
9898;SDS011;4988;49.238;6.698;2023-04-24T13:41:51;15.40;;;7.63;;
9898;SDS011;4988;49.238;6.698;2023-04-24T13:44:17;10.00;;;6.43;;
9898;SDS011;4988;49.238;6.698;2023-04-24T13:46:45;7.73;;;5.77;;
9898;SDS011;4988;49.238;6.698;2023-04-24T13:49:11;9.13;;;6.10;;
9898;SDS011;4988;49.238;6.698;2023-04-24T13:51:38;11.93;;;6.87;;
9898;SDS011;4988;49.238;6.698;2023-04-24T13:54:05;11.17;;;7.00;;
9898;SDS011;4988;49.238;6.698;2023-04-24T13:56:30;14.00;;;7.20;;
9898;SDS011;4988;49.238;6.698;2023-04-24T13:58:55;12.10;;;6.57;;
9898;SDS011;4988;49.238;6.698;2023-04-24T14:01:21;10.90;;;6.37;;
9898;SDS011;4988;49.238;6.698;2023-04-24T14:03:50;9.53;;;6.07;;
9898;SDS011;4988;49.238;6.698;2023-04-24T14:06:16;8.90;;;5.80;;
9898;SDS011;4988;49.238;6.698;2023-04-24T14:08:42;10.30;;;5.60;;
9898;SDS011;4988;49.238;6.698;2023-04-24T14:11:07;9.00;;;6.27;;
9898;SDS011;4988;49.238;6.698;2023-04-24T14:13:32;10.10;;;6.03;;
9898;SDS011;4988;49.238;6.698;2023-04-24T14:15:58;8.77;;;5.53;;
9898;SDS011;4988;49.238;6.698;2023-04-24T14:18:23;8.93;;;6.40;;
9898;SDS011;4988;49.238;6.698;2023-04-24T14:20:49;9.03;;;5.97;;
9898;SDS011;4988;49.238;6.698;2023-04-24T14:23:14;8.37;;;6.10;;
9898;SDS011;4988;49.238;6.698;2023-04-24T14:25:40;9.37;;;5.50;;
9898;SDS011;4988;49.238;6.698;2023-04-24T14:28:05;7.57;;;5.57;;
9898;SDS011;4988;49.238;6.698;2023-04-24T14:30:32;12.17;;;6.57;;
9898;SDS011;4988;49.238;6.698;2023-04-24T14:32:57;9.60;;;6.30;;
9898;SDS011;4988;49.238;6.698;2023-04-24T14:35:22;8.80;;;6.30;;
9898;SDS011;4988;49.238;6.698;2023-04-24T14:37:48;7.90;;;5.23;;
9898;SDS011;4988;49.238;6.698;2023-04-24T14:40:14;6.80;;;4.90;;
9898;SDS011;4988;49.238;6.698;2023-04-24T14:42:39;4.60;;;3.77;;
9898;SDS011;4988;49.238;6.698;2023-04-24T14:45:05;4.97;;;3.93;;
9898;SDS011;4988;49.238;6.698;2023-04-24T14:47:31;6.10;;;4.23;;
9898;SDS011;4988;49.238;6.698;2023-04-24T14:49:57;6.43;;;4.23;;
9898;SDS011;4988;49.238;6.698;2023-04-24T14:52:23;6.33;;;4.73;;
9898;SDS011;4988;49.238;6.698;2023-04-24T14:54:48;8.13;;;5.40;;
9898;SDS011;4988;49.238;6.698;2023-04-24T14:57:14;9.07;;;5.63;;
9898;SDS011;4988;49.238;6.698;2023-04-24T14:59:39;8.30;;;5.63;;
9898;SDS011;4988;49.238;6.698;2023-04-24T15:02:05;7.93;;;5.87;;
9898;SDS011;4988;49.238;6.698;2023-04-24T15:04:31;9.20;;;5.70;;
9898;SDS011;4988;49.238;6.698;2023-04-24T15:06:56;10.10;;;6.80;;
9898;SDS011;4988;49.238;6.698;2023-04-24T15:09:22;10.00;;;5.63;;